Terminal Aerodrome Forecast
Issued by NWS Quad Cities IA IL

Home | Current Version | Previous Version | Text Only | Print | Product List | Glossary On
Versions: 1 2 3 4 5 6 7 8 9 10 11 12 13 14 15 16 17 18 19 20 21 22 23 24
502
FTUS43 KDVN 050524
TAFDBQ
TAF
KDBQ 050524Z 0506/0606 26010KT 6SM BR OVC005
     FM050800 24008KT 3SM BR OVC004
      TEMPO 0510/0514 1SM BR
     FM051400 18007KT 4SM BR OVC004
     FM051800 18012KT 6SM HZ OVC015=

USA.gov is the U.S. government's official web portal to all federal, state and local government web resources and services.